Time;durP1;ratioP1;P1;durP2;ratioP2;P2;SDS_P1;SDS_P2;PMS_P1;PMS_P2;Temp;Humidity;BMP_temperature;BMP_pressure;BME280_temperature;BME280_humidity;BME280_pressure;Samples;Min_cycle;Max_cycle;Signal;HPM_P1;HPM_P2
2021/07/30 00:02:20;;;;;;;7.77;5.27;;;;;;;11.78;100.00;93596.25;5096406;28;20209;-80
2021/07/30 00:04:46;;;;;;;12.37;5.53;;;;;;;11.85;100.00;93591.75;5091742;28;20626;-79
2021/07/30 00:07:12;;;;;;;11.97;5.97;;;;;;;11.79;100.00;93597.84;5094874;28;20221;-79
2021/07/30 00:09:39;;;;;;;8.00;5.20;;;;;;;11.78;100.00;93598.88;5095415;28;20206;-79
2021/07/30 00:12:08;;;;;;;12.87;6.00;;;;;;;11.80;100.00;93599.44;5090055;28;20268;-81
2021/07/30 00:14:34;;;;;;;9.13;5.60;;;;;;;11.85;100.00;93598.81;5085242;28;20206;-80
2021/07/30 00:17:01;;;;;;;9.67;5.70;;;;;;;11.81;100.00;93601.06;5079415;28;20206;-81
2021/07/30 00:19:27;;;;;;;10.53;5.77;;;;;;;11.83;100.00;93601.63;5074942;28;20202;-80
2021/07/30 00:21:53;;;;;;;11.40;6.17;;;;;;;11.79;100.00;93592.63;5074565;28;20194;-81
2021/07/30 00:24:20;;;;;;;13.20;6.40;;;;;;;11.92;100.00;93591.75;5075342;28;20203;-81
2021/07/30 00:26:48;;;;;;;12.03;6.23;;;;;;;12.03;100.00;93588.44;5075497;28;20194;-81
2021/07/30 00:29:16;;;;;;;9.57;5.30;;;;;;;12.07;100.00;93591.41;5075673;28;20558;-82
2021/07/30 00:31:42;;;;;;;13.57;6.23;;;;;;;12.10;100.00;93588.38;5074926;28;20879;-81
2021/07/30 00:34:09;;;;;;;10.33;6.10;;;;;;;12.10;100.00;93583.16;5075519;28;20776;-81
2021/07/30 00:36:35;;;;;;;13.03;6.53;;;;;;;12.12;100.00;93591.56;5074054;28;20195;-80
2021/07/30 00:39:02;;;;;;;16.83;6.10;;;;;;;12.11;100.00;93595.22;5075262;28;20214;-80
2021/07/30 00:41:28;;;;;;;10.60;5.63;;;;;;;12.12;100.00;93588.97;5074997;28;20207;-79
2021/07/30 00:43:55;;;;;;;11.18;5.90;;;;;;;12.09;100.00;93586.81;5074657;28;20438;-83
2021/07/30 00:46:25;;;;;;;17.23;5.50;;;;;;;12.05;100.00;93590.06;5074450;28;20198;-81
2021/07/30 00:48:52;;;;;;;11.20;5.57;;;;;;;11.99;100.00;93602.16;5073498;28;20658;-80
2021/07/30 00:51:18;;;;;;;9.60;5.73;;;;;;;11.96;100.00;93595.56;5074315;28;20199;-80
2021/07/30 00:53:45;;;;;;;10.73;5.83;;;;;;;12.01;100.00;93605.38;5075333;28;20206;-81
2021/07/30 00:56:12;;;;;;;9.63;5.50;;;;;;;12.10;100.00;93604.09;5075162;28;20195;-80
2021/07/30 00:58:38;;;;;;;8.87;6.13;;;;;;;12.21;100.00;93603.41;5073831;28;20202;-81
2021/07/30 01:01:05;;;;;;;12.37;6.07;;;;;;;12.30;100.00;93593.44;5073129;28;20649;-79
2021/07/30 01:03:34;;;;;;;10.40;5.70;;;;;;;12.43;100.00;93589.91;5072877;28;20205;-80
2021/07/30 01:06:01;;;;;;;12.40;6.20;;;;;;;12.46;100.00;93597.34;5074078;28;20260;-81
2021/07/30 01:08:28;;;;;;;12.20;5.83;;;;;;;12.48;100.00;93586.66;5074285;28;20237;-81
2021/07/30 01:10:54;;;;;;;11.90;5.67;;;;;;;12.53;100.00;93590.22;5074709;28;20207;-81
2021/07/30 01:13:21;;;;;;;12.63;5.60;;;;;;;12.49;100.00;93596.09;5074784;28;20206;-81
2021/07/30 01:15:47;;;;;;;9.50;5.13;;;;;;;12.34;100.00;93583.34;5074206;28;20206;-81
2021/07/30 01:18:14;;;;;;;9.67;5.20;;;;;;;12.19;100.00;93579.25;5074798;28;20210;-80
2021/07/30 01:20:44;;;;;;;8.40;5.43;;;;;;;12.10;100.00;93580.53;5074817;28;20562;-81
2021/07/30 01:23:12;;;;;;;9.40;5.33;;;;;;;11.96;100.00;93586.91;5073974;28;20208;-80
2021/07/30 01:25:39;;;;;;;10.13;5.87;;;;;;;11.91;100.00;93589.34;5073495;28;20195;-80
2021/07/30 01:28:06;;;;;;;9.60;5.50;;;;;;;11.85;100.00;93586.53;5073189;28;20233;-82
2021/07/30 01:30:32;;;;;;;12.67;6.07;;;;;;;11.89;100.00;93589.53;5073713;28;20601;-82
2021/07/30 01:32:59;;;;;;;9.53;5.27;;;;;;;11.87;100.00;93578.47;5073687;28;20203;-81
2021/07/30 01:35:26;;;;;;;15.03;6.00;;;;;;;11.92;100.00;93577.88;5073642;28;20229;-82
2021/07/30 01:37:52;;;;;;;13.40;6.13;;;;;;;11.80;100.00;93577.72;5074084;28;20238;-81
2021/07/30 01:40:21;;;;;;;8.83;5.50;;;;;;;11.77;100.00;93572.91;5074166;28;20217;-81
2021/07/30 01:42:48;;;;;;;12.03;6.03;;;;;;;11.83;100.00;93578.09;5078231;28;20194;-83
2021/07/30 01:45:14;;;;;;;14.13;6.23;;;;;;;11.76;100.00;93574.75;5093783;28;20661;-81
2021/07/30 01:47:41;;;;;;;10.47;5.67;;;;;;;11.75;100.00;93565.28;5092964;28;20222;-81
2021/07/30 01:50:08;;;;;;;11.00;6.30;;;;;;;11.65;100.00;93575.41;5093780;28;20676;-78
2021/07/30 01:52:34;;;;;;;10.10;5.20;;;;;;;11.58;100.00;93574.66;5093135;28;20202;-81
2021/07/30 01:55:01;;;;;;;16.57;7.00;;;;;;;11.62;100.00;93575.84;5093931;28;20206;-81
2021/07/30 01:57:29;;;;;;;11.20;6.30;;;;;;;11.60;100.00;93576.03;5093268;28;20201;-81
2021/07/30 01:59:55;;;;;;;9.43;5.80;;;;;;;11.58;100.00;93570.22;5092606;28;20806;-79
2021/07/30 02:02:22;;;;;;;12.23;6.53;;;;;;;11.56;100.00;93571.47;5093022;28;20204;-78
2021/07/30 02:04:48;;;;;;;12.23;6.30;;;;;;;11.53;100.00;93575.28;5093740;28;20208;-80
2021/07/30 02:07:18;;;;;;;14.30;6.43;;;;;;;11.51;100.00;93571.28;5092871;28;20209;-79
2021/07/30 02:09:45;;;;;;;10.33;5.77;;;;;;;11.45;100.00;93568.50;5093722;28;20201;-79
2021/07/30 02:12:11;;;;;;;14.88;7.07;;;;;;;11.48;100.00;93565.47;5092661;28;20795;-80
2021/07/30 02:14:38;;;;;;;16.17;6.80;;;;;;;11.46;100.00;93567.50;5093527;28;20202;-80
2021/07/30 02:17:05;;;;;;;14.53;7.00;;;;;;;11.43;100.00;93565.31;5093639;28;20209;-79
2021/07/30 02:19:31;;;;;;;19.73;6.50;;;;;;;11.47;100.00;93561.28;5093107;28;20195;-79
2021/07/30 02:21:58;;;;;;;14.30;7.30;;;;;;;11.60;100.00;93562.19;5093363;28;20564;-78
2021/07/30 02:24:25;;;;;;;13.27;7.10;;;;;;;11.53;100.00;93564.03;5092255;28;20202;-79
2021/07/30 02:26:52;;;;;;;12.47;6.80;;;;;;;11.43;100.00;93565.31;5092545;28;20194;-79
2021/07/30 02:29:18;;;;;;;13.17;6.43;;;;;;;11.38;100.00;93569.56;5093435;28;20562;-80
2021/07/30 02:31:48;;;;;;;12.10;5.77;;;;;;;11.30;100.00;93565.38;5093345;28;20683;-81
2021/07/30 02:34:15;;;;;;;12.17;6.13;;;;;;;11.28;100.00;93565.59;5093390;28;20225;-78
2021/07/30 02:36:41;;;;;;;17.60;7.30;;;;;;;11.39;100.00;93561.53;5093079;28;20670;-81
2021/07/30 02:39:08;;;;;;;16.50;6.90;;;;;;;11.37;100.00;93553.06;5093363;28;20212;-81
2021/07/30 02:41:34;;;;;;;11.83;7.07;;;;;;;11.37;100.00;93562.72;5093027;28;20205;-80
2021/07/30 02:44:01;;;;;;;12.10;6.47;;;;;;;11.35;100.00;93555.09;5093489;28;20224;-80
2021/07/30 02:46:27;;;;;;;11.53;7.13;;;;;;;11.37;100.00;93550.44;5092847;28;20201;-79
2021/07/30 02:48:55;;;;;;;13.87;7.00;;;;;;;11.45;100.00;93544.97;5092048;28;20233;-80
2021/07/30 02:51:22;;;;;;;9.80;6.37;;;;;;;11.37;100.00;93550.44;5093124;28;20221;-80
2021/07/30 02:53:48;;;;;;;12.30;6.77;;;;;;;11.28;100.00;93551.72;5093220;28;20560;-80
2021/07/30 02:56:15;;;;;;;11.27;6.57;;;;;;;11.27;100.00;93548.31;5092620;28;20667;-81
2021/07/30 02:58:41;;;;;;;11.80;6.53;;;;;;;11.29;100.00;93550.69;5092926;28;20209;-80
2021/07/30 03:01:08;;;;;;;13.93;6.53;;;;;;;11.27;100.00;93544.88;5092513;28;20289;-80
2021/07/30 03:03:34;;;;;;;16.43;6.80;;;;;;;11.28;100.00;93546.50;5091947;28;20194;-80
2021/07/30 03:06:02;;;;;;;12.63;6.87;;;;;;;11.21;100.00;93548.38;5091599;28;20202;-80
2021/07/30 03:08:29;;;;;;;10.60;6.57;;;;;;;11.22;100.00;93539.50;5092929;28;20229;-79
2021/07/30 03:10:55;;;;;;;12.17;6.47;;;;;;;11.28;100.00;93538.66;5093032;28;20557;-80
2021/07/30 03:13:22;;;;;;;14.00;7.10;;;;;;;11.28;100.00;93536.84;5092874;28;20198;-79
2021/07/30 03:15:53;;;;;;;11.43;6.87;;;;;;;11.28;100.00;93528.22;5092726;28;20202;-79
2021/07/30 03:18:20;;;;;;;16.00;6.70;;;;;;;11.24;100.00;93527.00;5092787;28;20206;-81
2021/07/30 03:20:46;;;;;;;12.07;6.80;;;;;;;11.22;100.00;93532.44;5091825;28;20194;-79
2021/07/30 03:23:14;;;;;;;16.37;7.63;;;;;;;11.17;100.00;93524.44;5092248;28;20198;-80
2021/07/30 03:25:41;;;;;;;12.00;6.83;;;;;;;11.17;100.00;93519.22;5094743;28;20220;-80
2021/07/30 03:28:07;;;;;;;11.80;7.10;;;;;;;11.18;100.00;93520.81;5097051;28;20636;-80
2021/07/30 03:30:34;;;;;;;11.03;6.07;;;;;;;11.15;100.00;93517.84;5096427;28;20206;-80
2021/07/30 03:33:00;;;;;;;15.77;7.03;;;;;;;11.17;100.00;93527.06;5096349;28;20209;-80
2021/07/30 03:35:27;;;;;;;14.53;6.93;;;;;;;11.16;100.00;93515.00;5096405;28;20225;-80
2021/07/30 03:37:53;;;;;;;12.87;6.80;;;;;;;11.12;100.00;93519.03;5096721;28;20202;-81
2021/07/30 03:40:21;;;;;;;14.90;7.03;;;;;;;11.20;100.00;93516.19;5096553;28;20209;-81
2021/07/30 03:42:48;;;;;;;12.13;6.23;;;;;;;11.22;100.00;93523.81;5096492;28;20219;-78
2021/07/30 03:45:14;;;;;;;10.67;6.50;;;;;;;11.27;100.00;93516.13;5096562;28;20209;-80
2021/07/30 03:47:41;;;;;;;13.03;7.33;;;;;;;11.36;100.00;93509.66;5095223;28;20721;-80
2021/07/30 03:50:08;;;;;;;11.23;6.63;;;;;;;11.40;100.00;93510.81;5096319;28;20576;-80
2021/07/30 03:52:34;;;;;;;11.87;6.83;;;;;;;11.38;100.00;93510.25;5096893;28;20225;-80
2021/07/30 03:55:01;;;;;;;10.17;6.07;;;;;;;11.39;100.00;93504.00;5097638;28;20225;-80
2021/07/30 03:57:29;;;;;;;13.50;6.73;;;;;;;11.42;100.00;93513.22;5101410;28;20260;-80
2021/07/30 03:59:56;;;;;;;13.07;7.00;;;;;;;11.47;100.00;93511.59;5101350;28;20209;-81
2021/07/30 04:02:22;;;;;;;10.80;6.47;;;;;;;11.40;100.00;93516.06;5096622;28;20201;-80
2021/07/30 04:04:49;;;;;;;11.97;6.60;;;;;;;11.45;100.00;93516.22;5095260;28;20653;-80
2021/07/30 04:07:15;;;;;;;11.63;6.63;;;;;;;11.50;100.00;93510.34;5095820;28;20285;-79
2021/07/30 04:09:42;;;;;;;9.77;6.13;;;;;;;11.62;100.00;93520.94;5094925;28;20226;-80
2021/07/30 04:12:11;;;;;;;8.40;5.80;;;;;;;11.60;100.00;93520.34;5094818;28;20672;-79
2021/07/30 04:14:39;;;;;;;11.47;7.13;;;;;;;11.51;100.00;93519.81;5095770;28;20205;-80
2021/07/30 04:17:07;;;;;;;9.80;5.73;;;;;;;11.50;100.00;93522.63;5095605;28;20202;-80
2021/07/30 04:19:34;;;;;;;11.40;6.43;;;;;;;11.51;100.00;93519.81;5095687;28;20683;-78
2021/07/30 04:22:00;;;;;;;11.40;5.87;;;;;;;11.45;100.00;93521.44;5095512;28;20202;-79
2021/07/30 04:24:27;;;;;;;11.77;6.10;;;;;;;11.38;100.00;93527.75;5096118;28;20208;-81
2021/07/30 04:26:53;;;;;;;11.30;6.95;;;;;;;11.38;100.00;93528.53;5094867;28;20433;-80
2021/07/30 04:29:20;;;;;;;10.27;6.17;;;;;;;11.46;100.00;93530.91;5095361;28;20316;-81
2021/07/30 04:31:48;;;;;;;10.97;6.87;;;;;;;11.53;100.00;93530.06;5094821;28;20198;-80
2021/07/30 04:34:14;;;;;;;13.97;6.73;;;;;;;11.55;100.00;93523.59;5095098;28;20302;-78
2021/07/30 04:36:41;;;;;;;11.40;5.50;;;;;;;11.58;100.00;93538.06;5095253;28;20201;-79
2021/07/30 04:39:07;;;;;;;17.90;6.57;;;;;;;11.64;100.00;93529.34;5095566;28;20203;-79
2021/07/30 04:41:34;;;;;;;14.57;5.93;;;;;;;11.68;100.00;93527.13;5095531;28;20198;-79
2021/07/30 04:44:00;;;;;;;11.30;6.23;;;;;;;11.70;100.00;93519.88;5095478;28;20200;-81
2021/07/30 04:46:27;;;;;;;10.23;6.60;;;;;;;11.74;100.00;93528.88;5095567;28;20205;-80
2021/07/30 04:48:55;;;;;;;10.77;6.03;;;;;;;11.83;100.00;93519.75;5095057;28;20225;-78
2021/07/30 04:51:21;;;;;;;10.07;5.73;;;;;;;11.92;100.00;93522.94;5095184;28;20202;-80
2021/07/30 04:53:49;;;;;;;11.10;5.90;;;;;;;11.93;100.00;93524.53;5095158;28;20202;-80
2021/07/30 04:56:19;;;;;;;12.47;5.93;;;;;;;11.92;100.00;93520.31;5095404;28;20198;-79
2021/07/30 04:58:46;;;;;;;11.27;6.40;;;;;;;11.93;100.00;93524.53;5095439;28;20206;-79
2021/07/30 05:01:13;;;;;;;10.48;6.60;;;;;;;12.07;100.00;93518.16;5093984;28;20448;-80
2021/07/30 05:03:39;;;;;;;10.07;6.10;;;;;;;12.11;100.00;93521.16;5095085;28;20199;-81
2021/07/30 05:06:15;;;;;;;11.13;5.97;;;;;;;12.17;100.00;93513.25;5095402;28;20254;-80
2021/07/30 05:08:41;;;;;;;12.57;5.73;;;;;;;12.28;100.00;93514.34;5094411;28;20227;-79
2021/07/30 05:11:10;;;;;;;10.90;6.00;;;;;;;12.42;100.00;93519.44;5094278;28;20205;-81
2021/07/30 05:13:37;;;;;;;11.50;6.30;;;;;;;12.48;100.00;93519.38;5093137;28;20926;-79
2021/07/30 05:16:05;;;;;;;14.87;6.03;;;;;;;12.52;100.00;93515.31;5094044;28;20199;-82
2021/07/30 05:18:32;;;;;;;8.87;6.00;;;;;;;12.62;100.00;93514.75;5094525;28;20202;-80
2021/07/30 05:20:58;;;;;;;9.33;5.90;;;;;;;12.68;100.00;93515.72;5094168;28;20198;-80
2021/07/30 05:23:27;;;;;;;11.77;5.70;;;;;;;12.77;100.00;93511.78;5094401;28;20588;-81
2021/07/30 05:25:54;;;;;;;8.47;5.23;;;;;;;12.87;100.00;93517.31;5093492;28;20202;-80
2021/07/30 05:28:20;;;;;;;10.13;5.37;;;;;;;12.95;100.00;93522.22;5094656;28;20194;-82
2021/07/30 05:30:47;;;;;;;10.07;5.33;;;;;;;13.11;100.00;93509.53;5093810;28;20568;-80
2021/07/30 05:33:14;;;;;;;9.70;5.57;;;;;;;13.24;100.00;93514.59;5093846;28;20212;-79
2021/07/30 05:35:40;;;;;;;8.30;5.33;;;;;;;13.39;100.00;93516.03;5093422;28;20700;-80
2021/07/30 05:38:07;;;;;;;7.73;5.07;;;;;;;13.54;100.00;93515.59;5094582;28;20205;-81
2021/07/30 05:40:34;;;;;;;9.10;5.23;;;;;;;13.74;100.00;93517.94;5094020;28;20564;-80
2021/07/30 05:43:04;;;;;;;8.73;4.60;;;;;;;14.11;100.00;93509.88;5094015;28;20653;-80
2021/07/30 05:45:30;;;;;;;8.80;4.20;;;;;;;14.88;100.00;93516.75;5094110;28;20194;-81
2021/07/30 05:47:57;;;;;;;8.45;4.40;;;;;;;15.11;100.00;93519.28;5091923;28;20202;-81
2021/07/30 05:50:23;;;;;;;10.65;4.97;;;;;;;15.57;100.00;93510.59;5094086;28;20284;-81
2021/07/30 05:52:51;;;;;;;7.45;5.00;;;;;;;16.85;100.00;93507.22;5093777;28;20210;-81
2021/07/30 05:55:17;;;;;;;6.97;3.72;;;;;;;17.49;100.00;93514.50;5094022;28;20675;-81
2021/07/30 05:57:46;;;;;;;5.90;3.92;;;;;;;17.61;100.00;93513.56;5093243;28;20234;-80
2021/07/30 06:00:14;;;;;;;8.65;4.05;;;;;;;17.51;100.00;93514.25;5093147;28;20210;-80
2021/07/30 06:02:40;;;;;;;8.35;4.00;;;;;;;17.91;100.00;93510.41;5089776;28;20280;-80
2021/07/30 06:05:08;;;;;;;5.78;3.63;;;;;;;18.20;100.00;93510.09;5091727;28;20206;-82
2021/07/30 06:07:34;;;;;;;7.50;3.97;;;;;;;18.45;100.00;93509.44;5092580;28;20281;-80
2021/07/30 06:10:01;;;;;;;6.97;3.67;;;;;;;18.67;100.00;93517.25;5092367;28;20226;-81
2021/07/30 06:12:29;;;;;;;5.50;3.45;;;;;;;18.81;100.00;93515.72;5092745;28;20198;-80
2021/07/30 06:14:57;;;;;;;6.57;3.55;;;;;;;18.18;100.00;93502.41;5092777;28;20684;-81
2021/07/30 06:17:23;;;;;;;5.85;3.40;;;;;;;18.28;100.00;93514.91;5092822;28;20211;-80
2021/07/30 06:19:52;;;;;;;6.20;3.72;;;;;;;18.48;100.00;93512.41;5092989;28;20363;-81
2021/07/30 06:22:19;;;;;;;5.63;3.50;;;;;;;18.88;100.00;93514.72;5093217;28;20207;-81
2021/07/30 06:24:46;;;;;;;5.72;3.58;;;;;;;18.81;100.00;93514.94;5092805;28;20251;-81
2021/07/30 06:27:13;;;;;;;4.78;3.15;;;;;;;18.58;100.00;93513.50;5091749;28;20205;-81
2021/07/30 06:29:40;;;;;;;5.70;3.90;;;;;;;18.76;100.00;93514.91;5093425;28;20229;-80
2021/07/30 06:32:08;;;;;;;5.22;3.35;;;;;;;19.10;100.00;93518.00;5092814;28;20209;-81
2021/07/30 06:34:34;;;;;;;5.22;3.40;;;;;;;19.09;100.00;93511.09;5093263;28;20230;-80
2021/07/30 06:37:01;;;;;;;6.60;3.33;;;;;;;19.28;100.00;93510.63;5093220;28;20202;-81
2021/07/30 06:39:27;;;;;;;4.30;3.28;;;;;;;19.38;100.00;93508.00;5093315;28;20198;-81
2021/07/30 06:41:57;;;;;;;7.95;3.65;;;;;;;19.38;100.00;93511.47;5093058;28;20198;-81
2021/07/30 06:44:23;;;;;;;5.88;3.75;;;;;;;19.95;100.00;93512.34;5090865;28;20433;-81
2021/07/30 06:46:50;;;;;;;4.65;3.33;;;;;;;20.19;100.00;93500.41;5091889;28;20657;-83
2021/07/30 06:49:18;;;;;;;6.38;3.97;;;;;;;19.94;100.00;93505.44;5092559;28;20233;-82
2021/07/30 06:51:48;;;;;;;4.80;3.40;;;;;;;19.71;100.00;93500.63;5092790;28;20204;-82
2021/07/30 06:54:15;;;;;;;5.70;3.47;;;;;;;19.74;100.00;93511.50;5092447;28;20202;-81
2021/07/30 06:56:45;;;;;;;7.80;3.40;;;;;;;19.69;100.00;93508.84;5092148;28;20652;-81
2021/07/30 06:59:11;;;;;;;7.05;3.25;;;;;;;19.78;100.00;93519.72;5093040;28;20202;-81
2021/07/30 07:01:38;;;;;;;5.00;3.15;;;;;;;20.07;98.74;93513.94;5092680;28;20210;-82
2021/07/30 07:04:05;;;;;;;8.13;3.67;;;;;;;20.30;94.77;93513.38;5092644;28;20198;-81
2021/07/30 07:06:33;;;;;;;5.22;3.17;;;;;;;20.39;93.65;93518.13;5092714;28;20198;-81
2021/07/30 07:08:59;;;;;;;6.40;3.20;;;;;;;20.24;90.84;93509.13;5093070;28;20205;-82
2021/07/30 07:11:26;;;;;;;5.90;3.80;;;;;;;20.40;85.60;93506.44;5091298;28;20566;-81
2021/07/30 07:13:52;;;;;;;4.40;2.85;;;;;;;20.43;83.09;93505.91;5092802;28;20194;-81
2021/07/30 07:16:20;;;;;;;3.95;2.95;;;;;;;20.43;79.00;93506.72;5093123;28;20200;-81
2021/07/30 07:18:47;;;;;;;5.32;3.28;;;;;;;20.48;80.34;93506.72;5092071;28;20202;-81
2021/07/30 07:21:14;;;;;;;5.85;3.22;;;;;;;20.68;78.10;93505.91;5093015;28;20202;-81
2021/07/30 07:23:42;;;;;;;5.38;3.28;;;;;;;20.66;88.06;93504.56;5092908;28;20202;-81
2021/07/30 07:26:09;;;;;;;4.85;3.30;;;;;;;20.75;79.39;93494.19;5092484;28;20209;-81
2021/07/30 07:28:35;;;;;;;3.95;2.97;;;;;;;20.69;76.83;93488.13;5091128;28;20201;-81
2021/07/30 07:31:02;;;;;;;6.40;3.75;;;;;;;20.75;79.92;93486.22;5092519;28;20225;-81
2021/07/30 07:33:28;;;;;;;4.97;3.33;;;;;;;20.77;80.00;93486.78;5092653;28;20707;-81
2021/07/30 07:35:55;;;;;;;5.50;3.40;;;;;;;20.79;87.29;93489.94;5092129;28;20233;-81
2021/07/30 07:38:22;;;;;;;7.72;3.72;;;;;;;20.91;80.08;93498.38;5091792;28;20212;-81
2021/07/30 07:40:49;;;;;;;6.45;3.95;;;;;;;20.98;89.39;93506.84;5092481;28;20285;-80
2021/07/30 07:43:16;;;;;;;6.43;3.42;;;;;;;21.11;85.42;93502.03;5093350;28;20735;-81
2021/07/30 07:45:42;;;;;;;4.95;3.13;;;;;;;21.13;88.35;93503.31;5092863;28;20194;-81
2021/07/30 07:48:09;;;;;;;5.70;3.08;;;;;;;21.13;88.40;93502.53;5091760;28;20194;-80
2021/07/30 07:50:35;;;;;;;6.35;3.58;;;;;;;21.17;91.21;93509.69;5091428;28;20723;-80
2021/07/30 07:53:02;;;;;;;7.70;3.67;;;;;;;21.35;83.08;93510.13;5091595;28;20206;-81
2021/07/30 07:55:28;;;;;;;5.97;3.88;;;;;;;21.31;93.01;93509.09;5092553;28;20206;-81
2021/07/30 07:57:56;;;;;;;5.45;3.47;;;;;;;21.48;79.91;93514.06;5092549;28;20221;-81
2021/07/30 08:00:23;;;;;;;5.90;3.90;;;;;;;21.56;77.70;93508.97;5091679;28;20193;-80
2021/07/30 08:02:49;;;;;;;5.00;3.50;;;;;;;21.55;78.68;93503.94;5092459;28;20205;-81
2021/07/30 08:05:16;;;;;;;8.10;3.90;;;;;;;21.55;82.05;93503.94;5091185;28;20241;-81
2021/07/30 08:07:42;;;;;;;6.78;4.10;;;;;;;21.52;79.38;93513.25;5091974;28;20617;-81
2021/07/30 08:10:09;;;;;;;5.63;3.85;;;;;;;21.62;79.46;93504.44;5092236;28;20229;-81
2021/07/30 08:12:36;;;;;;;7.13;3.88;;;;;;;21.61;80.97;93500.97;5095264;28;20441;-81
2021/07/30 08:15:04;;;;;;;11.40;4.15;;;;;;;21.55;82.59;93502.09;5095453;28;20202;-80
2021/07/30 08:17:31;;;;;;;5.68;3.53;;;;;;;21.54;82.04;93502.34;5095488;28;20209;-79
2021/07/30 08:19:58;;;;;;;8.18;4.47;;;;;;;21.56;81.34;93501.00;5096299;28;20304;-79
2021/07/30 08:22:24;;;;;;;8.63;4.10;;;;;;;21.68;83.07;93502.53;5094722;28;20656;-79
2021/07/30 08:24:50;;;;;;;6.55;4.15;;;;;;;21.55;84.02;93493.31;5095866;28;20209;-80
2021/07/30 08:27:17;;;;;;;6.88;4.05;;;;;;;21.75;81.50;93503.81;5095275;28;20288;-80
2021/07/30 08:29:43;;;;;;;7.15;4.38;;;;;;;21.75;87.65;93509.13;5095220;28;20707;-80
2021/07/30 08:32:11;;;;;;;6.43;4.18;;;;;;;21.92;94.15;93502.63;5095028;28;20565;-82
2021/07/30 08:34:38;;;;;;;5.88;4.32;;;;;;;21.96;88.11;93495.69;5096125;28;20230;-83
2021/07/30 08:37:05;;;;;;;7.25;4.43;;;;;;;22.13;81.61;93495.25;5095466;28;20252;-80
2021/07/30 08:39:32;;;;;;;6.70;3.80;;;;;;;22.31;81.47;93493.81;5095258;28;20538;-81
2021/07/30 08:41:59;;;;;;;8.48;4.55;;;;;;;22.28;77.74;93494.34;5095706;28;20198;-80
2021/07/30 08:44:26;;;;;;;7.18;4.28;;;;;;;21.89;77.58;93497.88;5095303;28;20201;-81
2021/07/30 08:46:53;;;;;;;10.32;4.05;;;;;;;21.97;84.75;93495.41;5095026;28;20206;-81
2021/07/30 08:49:21;;;;;;;8.15;4.22;;;;;;;21.94;80.77;93490.63;5094742;28;20209;-81
2021/07/30 08:51:51;;;;;;;7.22;4.35;;;;;;;21.88;79.35;93486.41;5094632;28;20205;-79
2021/07/30 08:54:18;;;;;;;6.63;4.10;;;;;;;21.79;82.44;93486.22;5095066;28;20679;-80
2021/07/30 08:56:45;;;;;;;7.25;4.25;;;;;;;21.84;81.67;93487.28;5095487;28;20202;-81
2021/07/30 08:59:12;;;;;;;6.57;4.60;;;;;;;22.08;88.47;93480.16;5094512;28;20432;-81
2021/07/30 09:01:38;;;;;;;11.00;4.43;;;;;;;22.32;87.52;93484.75;5094589;28;20202;-80
2021/07/30 09:04:05;;;;;;;8.50;4.10;;;;;;;22.30;85.04;93479.72;5094769;28;20202;-80
2021/07/30 09:06:32;;;;;;;8.00;4.53;;;;;;;22.32;82.75;93485.56;5094316;28;20202;-80
2021/07/30 09:09:08;;;;;;;9.63;4.40;;;;;;;22.45;83.94;93486.75;5095111;28;20198;-80
2021/07/30 09:11:36;;;;;;;7.63;4.18;;;;;;;22.43;81.18;93475.63;5095106;28;20230;-80
2021/07/30 09:14:03;;;;;;;8.05;4.40;;;;;;;;;;5092714;28;20202;-81
2021/07/30 09:16:30;;;;;;;8.57;4.75;;;;;;;22.59;83.54;93472.78;5095037;28;20225;-83
2021/07/30 09:19:06;;;;;;;7.55;4.30;;;;;;;22.76;83.40;93459.03;5095008;28;20205;-79
2021/07/30 09:21:36;;;;;;;6.97;4.40;;;;;;;22.75;81.53;93466.22;5094985;28;20206;-79
2021/07/30 09:24:04;;;;;;;8.18;4.57;;;;;;;22.82;80.48;93461.34;5093639;28;20664;-81
2021/07/30 09:26:39;;;;;;;7.13;4.35;;;;;;;22.74;80.98;93461.97;5095258;28;20201;-81
2021/07/30 09:29:08;;;;;;;6.40;4.40;;;;;;;22.83;83.59;93462.94;5095067;28;20201;-80
2021/07/30 09:31:37;;;;;;;8.13;4.68;;;;;;;22.98;84.69;93467.28;5094606;28;20252;-81
2021/07/30 09:34:11;;;;;;;7.78;4.47;;;;;;;23.21;83.78;93457.66;5094757;28;20679;-80
2021/07/30 09:36:43;;;;;;;7.50;4.53;;;;;;;23.11;83.09;93457.81;5094978;28;20209;-81
2021/07/30 09:39:10;;;;;;;7.70;4.18;;;;;;;22.92;81.64;93455.09;5094861;28;20607;-79
2021/07/30 09:41:36;;;;;;;7.47;4.70;;;;;;;22.96;79.62;93447.34;5094529;28;20206;-82
2021/07/30 09:44:05;;;;;;;7.55;4.65;;;;;;;23.21;87.59;93447.00;5094475;28;20198;-83
2021/07/30 09:46:32;;;;;;;6.80;4.32;;;;;;;23.53;82.87;93450.03;5094729;28;20271;-82
2021/07/30 09:48:59;;;;;;;7.45;4.07;;;;;;;23.64;80.99;93448.81;5094575;28;20202;-81
2021/07/30 09:51:27;;;;;;;6.07;4.40;;;;;;;23.43;79.05;93435.81;5094568;28;20226;-82
2021/07/30 09:53:55;;;;;;;6.28;4.35;;;;;;;23.44;87.56;93437.38;5094646;28;20213;-82
2021/07/30 09:56:22;;;;;;;7.47;4.82;;;;;;;23.73;88.81;93430.28;5090941;28;20652;-82
2021/07/30 09:58:55;;;;;;;8.18;4.95;;;;;;;23.97;81.55;93430.19;5093207;28;20201;-81
2021/07/30 10:01:22;;;;;;;8.95;4.68;;;;;;;24.15;88.94;93425.91;5085995;28;20221;-82
2021/07/30 10:03:53;;;;;;;14.70;6.05;;;;;;;24.34;82.87;93423.16;5080402;28;20214;-81
2021/07/30 10:06:19;;;;;;;9.38;5.07;;;;;;;24.54;79.43;93427.31;5073964;28;20314;-81
2021/07/30 10:08:47;;;;;;;7.95;4.60;;;;;;;24.78;75.19;93432.50;5073896;28;20198;-80
2021/07/30 10:11:15;;;;;;;9.70;4.95;;;;;;;24.96;75.75;93414.75;5073545;28;20223;-80
2021/07/30 10:13:50;;;;;;;9.52;5.00;;;;;;;24.92;80.42;93417.22;5073680;28;20711;-80
2021/07/30 10:16:17;;;;;;;9.73;5.00;;;;;;;24.99;70.75;93408.03;5073889;28;20256;-80
2021/07/30 10:18:45;;;;;;;6.88;4.63;;;;;;;24.71;73.69;93411.53;5073779;28;20209;-80
2021/07/30 10:21:14;;;;;;;7.30;5.05;;;;;;;24.31;73.38;93411.16;5073541;28;20198;-79
2021/07/30 10:23:44;;;;;;;14.15;5.45;;;;;;;24.34;74.74;93402.56;5073278;28;20793;-79
2021/07/30 10:26:12;;;;;;;8.63;4.68;;;;;;;24.49;73.40;93406.84;5073501;28;20680;-80
2021/07/30 10:28:40;;;;;;;6.40;4.57;;;;;;;24.79;75.99;93409.25;5073616;28;20198;-80
2021/07/30 10:31:08;;;;;;;11.52;4.70;;;;;;;24.57;72.59;93405.38;5073284;28;20222;-78
2021/07/30 10:33:49;;;;;;;9.02;4.97;;;;;;;24.29;73.32;93408.00;5073415;28;20202;-80
2021/07/30 10:36:38;;;;;;;10.60;5.35;;;;;;;24.67;81.25;93388.38;5073091;28;20237;-79
2021/07/30 10:39:15;;;;;;;10.15;5.43;;;;;;;25.23;72.08;93391.72;5073312;28;20202;-79
2021/07/30 10:42:07;;;;;;;7.60;4.55;;;;;;;25.39;75.21;93390.31;5073434;28;20582;-79
2021/07/30 10:44:35;;;;;;;7.38;5.20;;;;;;;25.82;73.39;93389.06;5073164;28;20672;-78
2021/07/30 10:47:20;;;;;;;7.20;4.65;;;;;;;25.57;69.67;93398.47;5073310;28;20195;-80
2021/07/30 10:49:47;;;;;;;7.15;4.82;;;;;;;25.62;73.88;93390.34;5073275;28;20209;-80
2021/07/30 10:52:28;;;;;;;11.48;4.80;;;;;;;25.70;70.04;93386.94;5073060;28;20229;-80
2021/07/30 10:54:54;;;;;;;8.40;4.60;;;;;;;26.27;75.42;93382.88;5073030;28;20205;-79
2021/07/30 10:57:56;;;;;;;9.88;4.78;;;;;;;26.76;71.52;93381.00;5073193;28;20206;-79
2021/07/30 11:00:24;;;;;;;8.77;4.70;;;;;;;27.31;65.35;93380.47;5073138;28;20306;-79
2021/07/30 11:03:05;;;;;;;7.25;5.18;;;;;;;26.31;70.00;93373.09;5073038;28;20241;-79
2021/07/30 11:05:33;;;;;;;7.43;4.38;;;;;;;26.54;68.36;93376.50;5073091;28;20293;-79
2021/07/30 11:08:01;;;;;;;6.88;5.00;;;;;;;25.38;68.26;93374.59;5073182;28;20211;-77
2021/07/30 11:10:27;;;;;;;11.82;4.57;;;;;;;24.92;70.83;93374.50;5072785;28;20686;-78
2021/07/30 11:12:54;;;;;;;9.43;5.10;;;;;;;25.05;69.37;93370.22;5072817;28;20199;-79
2021/07/30 11:15:20;;;;;;;7.93;5.00;;;;;;;25.05;68.77;93369.44;5072822;28;20573;-77
2021/07/30 11:17:50;;;;;;;7.30;4.72;;;;;;;25.19;68.86;93372.84;5072830;28;20202;-78
2021/07/30 11:20:16;;;;;;;7.72;4.95;;;;;;;25.34;68.85;93363.72;5073148;28;20203;-79
2021/07/30 11:22:43;;;;;;;7.20;4.75;;;;;;;25.57;69.82;93366.41;5073332;28;20562;-78
2021/07/30 11:25:13;;;;;;;11.32;6.00;;;;;;;25.51;69.41;93363.03;5073252;28;20206;-79
2021/07/30 11:27:40;;;;;;;8.32;5.45;;;;;;;25.46;69.43;93368.50;5072903;28;20561;-79